createdAt,value
2017-11-04T00:00:37.915Z,9.98
2017-11-04T00:03:05.534Z,9.97
2017-11-04T00:05:33.187Z,9.95
2017-11-04T00:08:00.847Z,9.89
2017-11-04T00:10:28.506Z,9.87
2017-11-04T00:12:56.142Z,9.89
2017-11-04T00:15:23.790Z,9.93
2017-11-04T00:17:51.511Z,9.97
2017-11-04T00:20:19.158Z,9.91
2017-11-04T00:22:46.805Z,9.87
2017-11-04T00:25:14.453Z,9.81
2017-11-04T00:27:42.063Z,9.78
2017-11-04T00:30:09.702Z,9.77
2017-11-04T00:32:37.328Z,9.73
2017-11-04T00:35:04.970Z,9.75
2017-11-04T00:37:32.593Z,9.77
2017-11-04T00:40:00.253Z,9.81
2017-11-04T00:42:27.874Z,9.82
2017-11-04T00:44:55.550Z,9.84
2017-11-04T00:47:23.174Z,9.88
2017-11-04T00:49:50.850Z,9.91
2017-11-04T00:52:18.477Z,9.93
2017-11-04T00:54:46.152Z,9.93
2017-11-04T00:57:13.770Z,9.92
2017-11-04T00:59:41.446Z,9.86
2017-11-04T01:02:09.204Z,9.85
2017-11-04T01:04:36.862Z,9.85
2017-11-04T01:07:04.470Z,9.85
2017-11-04T01:09:32.841Z,9.80
2017-11-04T01:12:00.505Z,9.84
2017-11-04T01:14:28.125Z,9.83
2017-11-04T01:16:55.763Z,9.83
2017-11-04T01:19:23.369Z,9.83
2017-11-04T01:21:51.035Z,9.79
2017-11-04T01:24:18.633Z,9.79
2017-11-04T01:26:46.296Z,9.76
2017-11-04T01:29:13.934Z,9.79
2017-11-04T01:31:41.601Z,9.79
2017-11-04T01:34:11.094Z,9.75
2017-11-04T01:36:38.745Z,9.72
2017-11-04T01:39:06.368Z,9.76
2017-11-04T01:41:34.034Z,9.74
2017-11-04T01:44:01.645Z,9.70
2017-11-04T01:46:29.254Z,9.68
2017-11-04T01:48:56.910Z,9.68
2017-11-04T01:51:24.516Z,9.64
2017-11-04T01:53:51.592Z,9.54
2017-11-04T01:56:19.188Z,9.45
2017-11-04T01:58:46.846Z,9.45
2017-11-04T02:01:14.446Z,9.50
2017-11-04T02:03:42.091Z,9.53
2017-11-04T02:06:09.721Z,9.50
2017-11-04T02:08:37.389Z,9.49
2017-11-04T02:11:04.997Z,9.49
2017-11-04T02:13:32.593Z,9.52
2017-11-04T02:16:00.226Z,9.50
2017-11-04T02:18:27.826Z,9.49
2017-11-04T02:20:55.483Z,9.46
2017-11-04T02:23:23.105Z,9.47
2017-11-04T02:25:50.760Z,9.46
2017-11-04T02:28:18.376Z,9.48
2017-11-04T02:30:46.001Z,9.47
2017-11-04T02:33:13.598Z,9.38
2017-11-04T02:35:41.274Z,9.36
2017-11-04T02:38:08.895Z,9.30
2017-11-04T02:40:36.512Z,9.34
2017-11-04T02:43:04.157Z,9.37
2017-11-04T02:45:31.771Z,9.33
2017-11-04T02:47:59.421Z,9.36
2017-11-04T02:50:27.094Z,9.37
2017-11-04T02:52:54.754Z,9.41
2017-11-04T02:55:22.370Z,9.43
2017-11-04T02:57:50.038Z,9.43
2017-11-04T03:00:17.743Z,9.47
2017-11-04T03:02:45.350Z,9.47
2017-11-04T03:05:13.011Z,9.43
2017-11-04T03:07:40.629Z,9.36
2017-11-04T03:10:08.279Z,9.35
2017-11-04T03:12:35.893Z,9.38
2017-11-04T03:15:03.606Z,9.40
2017-11-04T03:17:31.213Z,9.35
2017-11-04T03:19:58.905Z,9.37
2017-11-04T03:22:26.497Z,9.34
2017-11-04T03:24:54.086Z,9.32
2017-11-04T03:27:21.728Z,9.24
2017-11-04T03:29:49.335Z,9.24
2017-11-04T03:32:16.979Z,9.20
2017-11-04T03:34:44.570Z,9.19
2017-11-04T03:37:12.217Z,9.28
2017-11-04T03:39:39.833Z,9.30
2017-11-04T03:42:07.489Z,9.30
2017-11-04T03:44:35.106Z,9.30
2017-11-04T03:47:02.794Z,9.31
2017-11-04T03:49:30.398Z,9.28
2017-11-04T03:51:58.006Z,9.26
2017-11-04T03:54:25.637Z,9.26
2017-11-04T03:56:53.249Z,9.23
2017-11-04T03:59:21.038Z,9.24
2017-11-04T04:01:48.641Z,9.27
2017-11-04T04:04:16.283Z,9.30
2017-11-04T04:06:43.887Z,9.29
2017-11-04T04:09:11.544Z,9.30
2017-11-04T04:11:39.142Z,9.27
2017-11-04T04:14:06.808Z,9.30
2017-11-04T04:16:34.433Z,9.37
2017-11-04T04:19:02.085Z,9.40
2017-11-04T04:21:29.741Z,9.44
2017-11-04T04:23:57.349Z,9.47
2017-11-04T04:26:25.075Z,9.46
2017-11-04T04:28:52.676Z,9.41
2017-11-04T04:31:20.318Z,9.29
2017-11-04T04:33:47.925Z,9.17
2017-11-04T04:36:15.574Z,9.07
2017-11-04T04:38:43.198Z,9.01
2017-11-04T04:41:10.855Z,8.91
2017-11-04T04:43:38.453Z,8.84
2017-11-04T04:46:06.104Z,8.79
2017-11-04T04:48:33.710Z,8.78
2017-11-04T04:51:01.501Z,8.75
2017-11-04T04:53:29.121Z,8.77
2017-11-04T04:55:56.802Z,8.69
2017-11-04T04:58:24.442Z,8.58
2017-11-04T05:00:52.053Z,8.64
2017-11-04T05:03:19.701Z,8.59
2017-11-04T05:05:47.315Z,8.53
2017-11-04T05:08:14.974Z,8.55
2017-11-04T05:10:42.592Z,8.50
2017-11-04T05:13:10.244Z,8.52
2017-11-04T05:15:37.837Z,8.58
2017-11-04T05:18:05.486Z,8.72
2017-11-04T05:20:33.097Z,8.88
2017-11-04T05:23:00.870Z,8.87
2017-11-04T05:25:28.485Z,8.85
2017-11-04T05:27:56.102Z,8.78
2017-11-04T05:30:23.753Z,8.77
2017-11-04T05:32:51.350Z,8.79
2017-11-04T05:35:18.998Z,8.87
2017-11-04T05:37:46.602Z,8.84
2017-11-04T05:40:14.239Z,8.91
2017-11-04T05:42:41.878Z,8.93
2017-11-04T05:45:09.518Z,8.95
2017-11-04T05:47:37.165Z,9.00
2017-11-04T05:50:04.846Z,8.97
2017-11-04T05:52:32.493Z,8.94
2017-11-04T05:55:00.104Z,9.00
2017-11-04T05:57:27.812Z,8.99
2017-11-04T05:59:55.377Z,9.05
2017-11-04T06:02:23.018Z,9.08
2017-11-04T06:04:50.629Z,9.05
2017-11-04T06:07:18.250Z,9.03
2017-11-04T06:09:45.890Z,9.04
2017-11-04T06:12:13.535Z,9.08
2017-11-04T06:14:41.182Z,9.05
2017-11-04T06:17:08.789Z,9.06
2017-11-04T06:19:36.429Z,9.04
2017-11-04T06:22:04.067Z,9.10
2017-11-04T06:24:31.730Z,9.14
2017-11-04T06:26:59.332Z,9.15
2017-11-04T06:29:26.973Z,9.18
2017-11-04T06:31:54.655Z,9.24
2017-11-04T06:34:22.313Z,9.30
2017-11-04T06:36:49.942Z,9.35
2017-11-04T06:39:17.634Z,9.41
2017-11-04T06:41:45.303Z,9.44
2017-11-04T06:44:12.944Z,9.45
2017-11-04T06:46:40.553Z,9.50
2017-11-04T06:49:08.192Z,9.50
2017-11-04T06:51:35.817Z,9.52
2017-11-04T06:54:03.461Z,9.55
2017-11-04T06:56:31.078Z,9.52
2017-11-04T06:58:58.714Z,9.52
2017-11-04T07:01:26.333Z,9.54
2017-11-04T07:03:53.979Z,9.57
2017-11-04T07:06:21.606Z,9.58
2017-11-04T07:08:49.294Z,9.59
2017-11-04T07:11:16.895Z,9.60
2017-11-04T07:13:44.690Z,9.58
2017-11-04T07:16:12.294Z,9.54
2017-11-04T07:18:39.933Z,9.55
2017-11-04T07:21:07.553Z,9.54
2017-11-04T07:23:35.219Z,9.51
2017-11-04T07:26:02.826Z,9.53
2017-11-04T07:28:30.517Z,9.48
2017-11-04T07:30:58.124Z,9.44
2017-11-04T07:33:25.809Z,9.42
2017-11-04T07:35:53.425Z,9.38
2017-11-04T07:38:21.068Z,9.37
2017-11-04T07:40:48.709Z,9.38
2017-11-04T07:43:16.352Z,9.35
2017-11-04T07:45:43.971Z,9.37
2017-11-04T07:48:11.611Z,9.41
2017-11-04T07:50:39.214Z,9.40
2017-11-04T07:53:06.862Z,9.40
2017-11-04T07:55:34.470Z,9.37
2017-11-04T07:58:02.125Z,9.41
2017-11-04T08:00:29.734Z,9.39
2017-11-04T08:02:57.407Z,9.40
2017-11-04T08:05:25.147Z,9.47
2017-11-04T08:07:52.805Z,9.52
2017-11-04T08:10:20.417Z,9.55
2017-11-04T08:12:48.064Z,9.64
2017-11-04T08:15:15.688Z,9.71
2017-11-04T08:17:43.319Z,9.81
2017-11-04T08:20:10.971Z,9.85
2017-11-04T08:22:38.634Z,9.91
2017-11-04T08:25:06.246Z,10.01
2017-11-04T08:27:33.914Z,10.11
2017-11-04T08:30:01.534Z,10.19
2017-11-04T08:32:29.196Z,10.27
2017-11-04T08:34:56.845Z,10.34
2017-11-04T08:37:27.395Z,10.41
2017-11-04T08:39:55.010Z,10.47
2017-11-04T08:42:22.664Z,10.45
2017-11-04T08:44:50.377Z,10.47
2017-11-04T08:47:18.055Z,10.52
2017-11-04T08:49:45.789Z,10.59
2017-11-04T08:52:13.400Z,10.64
2017-11-04T08:54:41.036Z,10.70
2017-11-04T08:57:08.682Z,10.78
2017-11-04T08:59:36.301Z,10.84
2017-11-04T09:02:03.963Z,10.90
2017-11-04T09:04:31.610Z,11.00
2017-11-04T09:06:59.261Z,11.12
2017-11-04T09:09:26.902Z,11.25
2017-11-04T09:11:54.569Z,11.41
2017-11-04T09:14:22.206Z,11.56
2017-11-04T09:16:49.845Z,11.71
2017-11-04T09:19:17.464Z,11.83
2017-11-04T09:21:45.133Z,12.01
2017-11-04T09:24:12.803Z,12.21
2017-11-04T09:26:40.431Z,12.42
2017-11-04T09:29:08.094Z,12.50
2017-11-04T09:31:35.725Z,12.48
2017-11-04T09:34:03.397Z,12.27
2017-11-04T09:36:31.017Z,12.10
2017-11-04T09:38:58.675Z,12.02
2017-11-04T09:41:26.304Z,11.97
2017-11-04T09:43:53.964Z,11.94
2017-11-04T09:46:21.581Z,11.93
2017-11-04T09:48:49.221Z,11.98
2017-11-04T09:51:16.854Z,12.12
2017-11-04T09:53:44.508Z,12.43
2017-11-04T09:56:12.186Z,12.80
2017-11-04T09:58:39.853Z,12.89
2017-11-04T10:01:07.473Z,12.95
2017-11-04T10:03:35.166Z,13.00
2017-11-04T10:06:02.802Z,13.12
2017-11-04T10:08:32.207Z,12.90
2017-11-04T10:10:59.829Z,12.67
2017-11-04T10:13:27.478Z,12.54
2017-11-04T10:15:55.091Z,12.56
2017-11-04T10:18:22.761Z,12.64
2017-11-04T10:20:50.467Z,12.68
2017-11-04T10:23:18.121Z,12.77
2017-11-04T10:25:45.735Z,12.83
2017-11-04T10:28:13.478Z,12.97
2017-11-04T10:30:41.090Z,13.06
2017-11-04T10:33:08.851Z,13.06
2017-11-04T10:35:36.465Z,12.92
2017-11-04T10:38:04.171Z,12.92
2017-11-04T10:40:31.798Z,12.92
2017-11-04T10:42:59.491Z,13.00
2017-11-04T10:45:27.102Z,12.99
2017-11-04T10:47:54.722Z,12.94
2017-11-04T10:50:22.398Z,12.90
2017-11-04T10:52:50.023Z,12.93
2017-11-04T10:55:17.681Z,12.95
2017-11-04T10:57:45.341Z,12.93
2017-11-04T11:00:13.028Z,12.96
2017-11-04T11:02:40.667Z,13.26
2017-11-04T11:05:08.326Z,13.61
2017-11-04T11:07:35.954Z,13.87
2017-11-04T11:10:03.589Z,13.88
2017-11-04T11:12:31.235Z,13.69
2017-11-04T11:14:58.879Z,13.55
2017-11-04T11:17:26.486Z,13.46
2017-11-04T11:19:54.135Z,13.38
2017-11-04T11:22:21.774Z,13.30
2017-11-04T11:24:49.421Z,13.27
2017-11-04T11:27:17.036Z,13.27
2017-11-04T11:29:44.765Z,13.31
2017-11-04T11:32:12.401Z,13.42
2017-11-04T11:34:40.053Z,13.53
2017-11-04T11:37:07.693Z,13.60
2017-11-04T11:39:35.358Z,13.53
2017-11-04T11:42:02.990Z,13.56
2017-11-04T11:44:30.653Z,13.89
2017-11-04T11:46:58.270Z,14.16
2017-11-04T11:49:25.959Z,14.24
2017-11-04T11:51:53.586Z,14.04
2017-11-04T11:54:21.291Z,14.22
2017-11-04T11:56:48.942Z,14.07
2017-11-04T11:59:16.585Z,13.91
2017-11-04T12:01:44.259Z,13.83
2017-11-04T12:04:11.886Z,13.96
2017-11-04T12:06:39.543Z,14.20
2017-11-04T12:09:07.162Z,14.28
2017-11-04T12:11:34.819Z,14.45
2017-11-04T12:14:02.439Z,14.52
2017-11-04T12:16:30.103Z,14.92
2017-11-04T12:18:57.729Z,15.26
2017-11-04T12:21:25.401Z,15.63
2017-11-04T12:23:53.086Z,15.88
2017-11-04T12:26:20.766Z,16.18
2017-11-04T12:28:48.402Z,16.33
2017-11-04T12:31:16.046Z,16.40
2017-11-04T12:33:43.671Z,16.16
2017-11-04T12:36:11.518Z,16.14
2017-11-04T12:38:39.159Z,16.20
2017-11-04T12:41:06.933Z,16.59
2017-11-04T12:43:34.549Z,16.51
2017-11-04T12:46:02.209Z,16.40
2017-11-04T12:48:29.865Z,16.42
2017-11-04T12:50:57.498Z,16.39
2017-11-04T12:53:25.149Z,16.34
2017-11-04T12:55:52.762Z,16.63
2017-11-04T12:58:20.449Z,16.61
2017-11-04T13:00:48.053Z,16.52
2017-11-04T13:03:15.724Z,16.63
2017-11-04T13:05:43.345Z,16.65
2017-11-04T13:08:10.998Z,16.84
2017-11-04T13:10:38.600Z,16.88
2017-11-04T13:13:06.278Z,16.94
2017-11-04T13:15:33.969Z,17.01
2017-11-04T13:18:01.634Z,17.10
2017-11-04T13:20:29.354Z,17.15
2017-11-04T13:22:57.025Z,17.24
2017-11-04T13:25:24.649Z,17.24
2017-11-04T13:27:52.281Z,17.11
2017-11-04T13:30:19.951Z,16.97
2017-11-04T13:32:47.588Z,17.11
2017-11-04T13:35:15.258Z,17.16
2017-11-04T13:37:42.898Z,17.26
2017-11-04T13:40:10.551Z,17.26
2017-11-04T13:42:38.190Z,17.30
2017-11-04T13:45:05.868Z,17.38
2017-11-04T13:47:33.610Z,17.37
2017-11-04T13:50:01.251Z,17.41
2017-11-04T13:52:28.885Z,17.51
2017-11-04T13:54:56.546Z,17.42
2017-11-04T13:57:24.188Z,17.33
2017-11-04T13:59:51.821Z,17.46
2017-11-04T14:02:19.478Z,17.46
2017-11-04T14:04:47.108Z,17.35
2017-11-04T14:07:14.857Z,17.33
2017-11-04T14:09:42.501Z,17.53
2017-11-04T14:12:10.133Z,17.54
2017-11-04T14:14:37.805Z,17.49
2017-11-04T14:17:05.454Z,17.57
2017-11-04T14:19:33.145Z,17.44
2017-11-04T14:22:00.785Z,17.36
2017-11-04T14:24:28.454Z,17.21
2017-11-04T14:26:56.092Z,17.21
2017-11-04T14:29:23.754Z,17.11
2017-11-04T14:31:51.395Z,17.10
2017-11-04T14:34:19.062Z,17.06
2017-11-04T14:36:46.795Z,16.98
2017-11-04T14:39:14.484Z,16.99
2017-11-04T14:41:42.118Z,16.82
2017-11-04T14:44:09.726Z,16.59
2017-11-04T14:46:37.362Z,16.37
2017-11-04T14:49:04.975Z,16.18
2017-11-04T14:51:32.635Z,16.10
2017-11-04T14:54:00.242Z,16.02
2017-11-04T14:56:27.876Z,15.96
2017-11-04T14:58:55.498Z,15.93
2017-11-04T15:01:23.151Z,15.91
2017-11-04T15:03:50.753Z,15.90
2017-11-04T15:06:18.394Z,15.89
2017-11-04T15:08:46.022Z,15.86
2017-11-04T15:11:13.684Z,15.89
2017-11-04T15:13:41.316Z,15.92
2017-11-04T15:16:08.983Z,15.92
2017-11-04T15:18:36.624Z,15.92
2017-11-04T15:21:04.308Z,15.96
2017-11-04T15:23:31.925Z,15.94
2017-11-04T15:25:59.758Z,15.94
2017-11-04T15:28:27.494Z,15.92
2017-11-04T15:30:55.161Z,15.90
2017-11-04T15:33:22.840Z,15.87
2017-11-04T15:35:50.556Z,15.84
2017-11-04T15:38:18.264Z,15.82
2017-11-04T15:40:45.939Z,15.81
2017-11-04T15:43:13.722Z,15.79
2017-11-04T15:45:41.400Z,15.78
2017-11-04T15:48:09.049Z,15.77
2017-11-04T15:50:36.703Z,15.76
2017-11-04T15:53:04.320Z,15.77
2017-11-04T15:55:31.994Z,15.82
2017-11-04T15:57:59.742Z,15.83
2017-11-04T16:00:27.432Z,15.83
2017-11-04T16:02:55.183Z,15.84
2017-11-04T16:05:22.910Z,15.86
2017-11-04T16:07:50.602Z,15.85
2017-11-04T16:10:18.406Z,15.81
2017-11-04T16:12:46.156Z,15.75
2017-11-04T16:15:13.894Z,15.65
2017-11-04T16:17:41.530Z,15.60
2017-11-04T16:20:09.259Z,15.50
2017-11-04T16:22:36.912Z,15.45
2017-11-04T16:25:04.646Z,15.46
2017-11-04T16:27:32.415Z,15.51
2017-11-04T16:30:00.082Z,15.56
2017-11-04T16:32:27.821Z,15.62
2017-11-04T16:34:55.477Z,15.62
2017-11-04T16:37:23.094Z,15.64
2017-11-04T16:39:50.733Z,15.63
2017-11-04T16:42:18.359Z,15.62
2017-11-04T16:44:46.010Z,15.62
2017-11-04T16:47:13.647Z,15.59
2017-11-04T16:49:41.333Z,15.61
2017-11-04T16:52:08.959Z,15.62
2017-11-04T16:54:36.596Z,15.65
2017-11-04T16:57:04.233Z,15.67
2017-11-04T16:59:31.860Z,15.67
2017-11-04T17:01:59.522Z,15.70
2017-11-04T17:04:27.186Z,15.68
2017-11-04T17:06:54.845Z,15.68
2017-11-04T17:09:22.474Z,15.68
2017-11-04T17:11:50.178Z,15.70
2017-11-04T17:14:17.784Z,15.71
2017-11-04T17:16:45.456Z,15.72
2017-11-04T17:19:13.141Z,15.73
2017-11-04T17:21:40.802Z,15.64
2017-11-04T17:24:08.456Z,15.57
2017-11-04T17:26:36.130Z,15.51
2017-11-04T17:29:03.756Z,15.46
2017-11-04T17:31:31.400Z,15.42
2017-11-04T17:33:59.026Z,15.42
2017-11-04T17:36:26.684Z,15.46
2017-11-04T17:38:54.302Z,15.46
2017-11-04T17:41:21.940Z,15.47
2017-11-04T17:43:49.622Z,15.44
2017-11-04T17:46:17.283Z,15.47
2017-11-04T17:48:44.877Z,15.48
2017-11-04T17:51:12.544Z,15.49
2017-11-04T17:53:40.153Z,15.51
2017-11-04T17:56:07.820Z,15.51
2017-11-04T17:58:35.443Z,15.51
2017-11-04T18:01:03.222Z,15.50
2017-11-04T18:03:30.865Z,15.49
2017-11-04T18:05:58.522Z,15.49
2017-11-04T18:08:26.160Z,15.49
2017-11-04T18:10:53.837Z,15.50
2017-11-04T18:13:21.458Z,15.49
2017-11-04T18:15:49.093Z,15.53
2017-11-04T18:18:16.781Z,15.56
2017-11-04T18:20:44.425Z,15.58
2017-11-04T18:23:12.042Z,15.59
2017-11-04T18:25:39.806Z,15.59
2017-11-04T18:28:07.444Z,15.61
2017-11-04T18:30:35.178Z,15.63
2017-11-04T18:33:02.805Z,15.64
2017-11-04T18:35:30.490Z,15.61
2017-11-04T18:37:58.122Z,15.60
2017-11-04T18:40:25.777Z,15.59
2017-11-04T18:42:53.411Z,15.58
2017-11-04T18:45:21.046Z,15.56
2017-11-04T18:47:48.791Z,15.53
2017-11-04T18:50:16.422Z,15.53
2017-11-04T18:52:44.098Z,15.54
2017-11-04T18:55:11.721Z,15.54
2017-11-04T18:57:39.389Z,15.56
2017-11-04T19:00:07.037Z,15.59
2017-11-04T19:02:34.694Z,15.58
2017-11-04T19:05:02.318Z,15.58
2017-11-04T19:07:29.974Z,15.57
2017-11-04T19:09:57.598Z,15.56
2017-11-04T19:12:25.267Z,15.60
2017-11-04T19:14:52.921Z,15.63
2017-11-04T19:17:20.589Z,15.63
2017-11-04T19:19:48.219Z,15.61
2017-11-04T19:22:15.897Z,15.61
2017-11-04T19:24:43.507Z,15.60
2017-11-04T19:27:11.123Z,15.62
2017-11-04T19:29:38.845Z,15.63
2017-11-04T19:32:06.478Z,15.63
2017-11-04T19:34:34.164Z,15.65
2017-11-04T19:37:01.802Z,15.64
2017-11-04T19:39:29.559Z,15.65
2017-11-04T19:41:57.185Z,15.64
2017-11-04T19:44:24.874Z,15.62
2017-11-04T19:46:52.509Z,15.65
2017-11-04T19:49:20.182Z,15.64
2017-11-04T19:51:47.811Z,15.64
2017-11-04T19:54:15.465Z,15.63
2017-11-04T19:56:43.089Z,15.67
2017-11-04T19:59:10.752Z,15.67
2017-11-04T20:01:38.369Z,15.67
2017-11-04T20:04:06.032Z,15.63
2017-11-04T20:06:33.649Z,15.60
2017-11-04T20:09:01.303Z,15.61
2017-11-04T20:11:28.928Z,15.61
2017-11-04T20:13:56.601Z,15.61
2017-11-04T20:16:24.258Z,15.62
2017-11-04T20:18:51.919Z,15.63
2017-11-04T20:21:19.521Z,15.61
2017-11-04T20:23:47.226Z,15.60
2017-11-04T20:26:14.881Z,15.59
2017-11-04T20:28:42.536Z,15.58
2017-11-04T20:31:10.146Z,15.57
2017-11-04T20:33:37.798Z,15.56
2017-11-04T20:36:05.426Z,15.57
2017-11-04T20:38:33.079Z,15.54
2017-11-04T20:41:00.688Z,15.55
2017-11-04T20:43:28.327Z,15.55
2017-11-04T20:45:56.110Z,15.52
2017-11-04T20:48:23.817Z,15.51
2017-11-04T20:50:51.440Z,15.50
2017-11-04T20:53:19.114Z,15.48
2017-11-04T20:55:46.743Z,15.46
2017-11-04T20:58:14.381Z,15.45
2017-11-04T21:00:41.994Z,15.45
2017-11-04T21:03:09.685Z,15.41
2017-11-04T21:05:37.317Z,15.42
2017-11-04T21:08:04.927Z,15.43
2017-11-04T21:10:32.554Z,15.44
2017-11-04T21:13:00.215Z,15.42
2017-11-04T21:15:27.855Z,15.44
2017-11-04T21:17:55.539Z,15.43
2017-11-04T21:20:23.258Z,15.40
2017-11-04T21:22:50.902Z,15.41
2017-11-04T21:25:18.510Z,15.40
2017-11-04T21:27:46.183Z,15.41
2017-11-04T21:30:13.796Z,15.37
2017-11-04T21:32:41.439Z,15.35
2017-11-04T21:35:09.078Z,15.36
2017-11-04T21:37:36.786Z,15.38
2017-11-04T21:40:04.382Z,15.40
2017-11-04T21:42:32.051Z,15.40
2017-11-04T21:44:59.668Z,15.40
2017-11-04T21:47:27.328Z,15.40
2017-11-04T21:49:54.953Z,15.39
2017-11-04T21:52:22.669Z,15.39
2017-11-04T21:54:50.286Z,15.41
2017-11-04T21:57:17.962Z,15.44
2017-11-04T21:59:45.576Z,15.44
2017-11-04T22:02:13.235Z,15.46
2017-11-04T22:04:40.847Z,15.44
2017-11-04T22:07:08.555Z,15.42
2017-11-04T22:09:36.172Z,15.39
2017-11-04T22:12:03.850Z,15.35
2017-11-04T22:14:31.488Z,15.32
2017-11-04T22:16:59.291Z,15.33
2017-11-04T22:19:26.924Z,15.33
2017-11-04T22:21:54.587Z,15.34
2017-11-04T22:24:22.223Z,15.30
2017-11-04T22:26:49.929Z,15.31
2017-11-04T22:29:17.555Z,15.30
2017-11-04T22:31:45.189Z,15.30
2017-11-04T22:34:12.849Z,15.31
2017-11-04T22:36:40.496Z,15.29
2017-11-04T22:39:08.119Z,15.31
2017-11-04T22:41:35.890Z,15.31
2017-11-04T22:44:03.504Z,15.27
2017-11-04T22:46:31.131Z,15.28
2017-11-04T22:48:58.786Z,15.26
2017-11-04T22:51:26.414Z,15.25
2017-11-04T22:53:54.072Z,15.22
2017-11-04T22:56:21.685Z,15.20
2017-11-04T22:58:49.330Z,15.20
2017-11-04T23:01:16.955Z,15.18
2017-11-04T23:03:44.597Z,15.14
2017-11-04T23:06:12.230Z,15.14
2017-11-04T23:08:39.877Z,15.13
2017-11-04T23:11:07.523Z,15.11
2017-11-04T23:13:35.197Z,15.11
2017-11-04T23:16:02.826Z,15.09
2017-11-04T23:18:30.486Z,15.07
2017-11-04T23:20:58.126Z,15.09
2017-11-04T23:23:25.797Z,15.03
2017-11-04T23:25:53.386Z,14.98
2017-11-04T23:28:21.006Z,14.96
2017-11-04T23:30:48.588Z,14.94
2017-11-04T23:33:16.223Z,14.91
2017-11-04T23:35:43.899Z,14.89
2017-11-04T23:38:11.522Z,14.87
2017-11-04T23:40:39.131Z,14.82
2017-11-04T23:43:06.767Z,14.77
2017-11-04T23:45:34.366Z,14.77
2017-11-04T23:48:01.979Z,14.77
2017-11-04T23:50:29.535Z,14.78
2017-11-04T23:52:57.160Z,14.77
2017-11-04T23:55:24.771Z,14.75
2017-11-04T23:57:52.378Z,14.69
